Time;durP1;ratioP1;P1;durP2;ratioP2;P2;SDS_P1;SDS_P2;PMS_P1;PMS_P2;Temp;Humidity;BMP_temperature;BMP_pressure;BME280_temperature;BME280_humidity;BME280_pressure;Samples;Min_cycle;Max_cycle;Signal;HPM_P1;HPM_P2
2022/09/27 00:00:44;;;;;;;0.73;0.73;;;18.40;72.00;;;;;;5052449;28;20185;-69
2022/09/27 00:03:10;;;;;;;0.70;0.70;;;18.40;72.00;;;;;;5052231;28;20190;-69
2022/09/27 00:05:37;;;;;;;1.02;0.80;;;18.40;72.00;;;;;;5052186;28;20186;-69
2022/09/27 00:08:03;;;;;;;1.00;0.70;;;18.40;72.10;;;;;;5068867;28;20211;-69
2022/09/27 00:10:30;;;;;;;1.15;0.70;;;18.40;72.00;;;;;;5052526;28;20183;-69
2022/09/27 00:12:57;;;;;;;1.13;0.70;;;18.40;72.10;;;;;;5051981;28;20285;-69
2022/09/27 00:15:23;;;;;;;0.70;0.70;;;18.40;72.00;;;;;;5035476;28;20686;-69
2022/09/27 00:17:52;;;;;;;0.63;0.63;;;18.40;72.00;;;;;;5052138;28;20225;-69
2022/09/27 00:20:20;;;;;;;0.80;0.80;;;18.40;72.00;;;;;;5051983;28;20182;-69
2022/09/27 00:22:47;;;;;;;0.70;0.70;;;18.40;72.80;;;;;;5051803;28;20222;-69
2022/09/27 00:25:15;;;;;;;0.70;0.70;;;18.40;72.10;;;;;;5035269;28;20229;-69
2022/09/27 00:27:41;;;;;;;0.60;0.60;;;18.40;72.10;;;;;;5051848;28;20297;-69
2022/09/27 00:30:08;;;;;;;0.60;0.60;;;18.40;72.00;;;;;;5035163;28;20289;-69
2022/09/27 00:32:34;;;;;;;0.60;0.60;;;18.40;72.10;;;;;;5034594;28;20198;-70
2022/09/27 00:35:00;;;;;;;1.52;0.77;;;18.40;72.10;;;;;;5051597;28;20202;-69
2022/09/27 00:37:26;;;;;;;0.88;0.60;;;18.40;72.10;;;;;;5051884;28;20218;-69
2022/09/27 00:39:52;;;;;;;0.68;0.60;;;18.40;72.10;;;;;;5051664;28;20174;-69
2022/09/27 00:42:18;;;;;;;0.70;0.70;;;18.40;72.10;;;;;;5068368;28;20610;-68
2022/09/27 00:45:01;;;;;;;0.57;0.57;;;18.40;72.10;;;;;;5051403;28;20193;-69
2022/09/27 00:47:53;;;;;;;1.50;0.60;;;18.40;72.00;;;;;;5051441;28;20205;-69
2022/09/27 00:50:31;;;;;;;0.82;0.70;;;18.40;72.00;;;;;;5035198;28;20276;-69
2022/09/27 00:53:22;;;;;;;0.85;0.70;;;18.40;72.00;;;;;;5051635;28;20243;-69
2022/09/27 00:55:55;;;;;;;1.05;0.70;;;18.40;72.00;;;;;;5034763;28;20217;-69
2022/09/27 00:58:30;;;;;;;0.93;0.70;;;18.40;72.00;;;;;;5034686;28;20199;-69
2022/09/27 01:01:06;;;;;;;0.60;0.60;;;18.40;72.10;;;;;;5034926;28;20196;-70
2022/09/27 01:03:55;;;;;;;1.23;0.88;;;18.40;72.10;;;;;;5034341;28;20189;-69
2022/09/27 01:06:22;;;;;;;0.70;0.70;;;18.40;72.00;;;;;;5050805;28;20178;-70
2022/09/27 01:08:48;;;;;;;0.70;0.60;;;18.30;71.90;;;;;;5034617;28;20204;-69
2022/09/27 01:11:35;;;;;;;0.70;0.57;;;18.40;72.00;;;;;;5034959;28;20186;-69
2022/09/27 01:14:31;;;;;;;1.02;0.60;;;18.40;72.00;;;;;;5034199;28;20184;-69
2022/09/27 01:17:16;;;;;;;0.70;0.70;;;18.40;72.00;;;;;;5051087;28;20202;-69
2022/09/27 01:20:30;;;;;;;0.95;0.60;;;18.40;72.10;;;;;;5034737;28;20198;-69
2022/09/27 01:23:14;;;;;;;0.50;0.50;;;18.40;72.10;;;;;;5034322;28;20297;-69
2022/09/27 01:26:17;;;;;;;1.23;0.73;;;18.40;72.00;;;;;;5051253;28;20222;-69
2022/09/27 01:29:08;;;;;;;1.00;0.50;;;18.40;72.10;;;;;;5034698;28;20251;-69
2022/09/27 01:31:55;;;;;;;0.50;0.50;;;18.40;72.00;;;;;;5034213;28;20179;-69
2022/09/27 01:34:48;;;;;;;1.05;0.80;;;18.40;72.10;;;;;;5034740;28;20214;-69
2022/09/27 01:37:39;;;;;;;0.98;0.70;;;18.40;72.10;;;;;;5050766;28;20217;-69
2022/09/27 01:40:23;;;;;;;2.85;0.55;;;18.40;72.10;;;;;;5050773;28;20182;-69
2022/09/27 01:43:28;;;;;;;0.60;0.60;;;18.40;72.10;;;;;;5040880;28;20265;-69
2022/09/27 01:46:09;;;;;;;0.47;0.47;;;18.40;72.10;;;;;;5054919;28;20186;-68
2022/09/27 01:49:12;;;;;;;0.70;0.70;;;18.40;72.00;;;;;;5053925;28;20217;-69
2022/09/27 01:51:49;;;;;;;1.35;0.55;;;18.40;72.10;;;;;;5055019;28;20194;-69
2022/09/27 01:54:25;;;;;;;0.52;0.50;;;18.40;72.10;;;;;;5038429;28;20239;-69
2022/09/27 01:57:18;;;;;;;0.60;0.50;;;18.30;72.00;;;;;;5055003;28;20178;-69
2022/09/27 02:00:15;;;;;;;0.60;0.60;;;18.30;72.00;;;;;;5056781;22;20234;-64
2022/09/27 02:03:13;;;;;;;0.50;0.50;;;18.40;72.10;;;;;;5021978;28;20404;-64
2022/09/27 02:06:01;;;;;;;0.55;0.47;;;18.30;72.00;;;;;;5036005;28;20199;-65
2022/09/27 02:08:58;;;;;;;0.63;0.60;;;18.40;72.10;;;;;;5034881;28;20221;-64
2022/09/27 02:11:54;;;;;;;0.52;0.52;;;18.30;72.00;;;;;;5037683;28;20199;-65
2022/09/27 02:14:32;;;;;;;0.52;0.50;;;18.30;72.00;;;;;;5018100;28;20203;-64
2022/09/27 02:17:41;;;;;;;0.50;0.50;;;18.40;72.10;;;;;;5034424;28;20194;-64
2022/09/27 02:20:16;;;;;;;0.50;0.50;;;18.40;72.10;;;;;;4967971;28;20227;-65
2022/09/27 02:23:13;;;;;;;0.65;0.60;;;18.30;72.00;;;;;;5018788;28;20273;-64
2022/09/27 02:25:54;;;;;;;0.80;0.80;;;18.30;72.00;;;;;;5018262;28;20218;-64
2022/09/27 02:28:47;;;;;;;0.52;0.50;;;18.30;72.00;;;;;;5034137;28;20203;-64
2022/09/27 02:31:22;;;;;;;2.17;0.52;;;18.30;72.00;;;;;;5034124;28;20187;-64
2022/09/27 02:33:57;;;;;;;0.85;0.57;;;18.30;72.00;;;;;;5017796;28;20195;-64
2022/09/27 02:36:23;;;;;;;0.47;0.47;;;18.40;72.10;;;;;;5016345;28;20217;-65
2022/09/27 02:38:50;;;;;;;0.57;0.40;;;18.40;72.10;;;;;;5033829;28;20199;-64
2022/09/27 02:41:21;;;;;;;1.30;0.70;;;18.30;72.90;;;;;;5017942;28;20237;-65
2022/09/27 02:43:58;;;;;;;0.40;0.40;;;18.30;72.00;;;;;;5031886;28;20196;-65
2022/09/27 02:46:52;;;;;;;0.50;0.50;;;18.30;72.00;;;;;;5033925;28;20558;-65
2022/09/27 02:49:24;;;;;;;0.45;0.45;;;18.30;72.00;;;;;;5034092;28;20602;-65
2022/09/27 02:52:43;;;;;;;0.55;0.55;;;18.30;72.00;;;;;;5033562;28;20187;-65
2022/09/27 02:55:43;;;;;;;0.55;0.55;;;18.30;72.00;;;;;;5032744;28;20203;-65
2022/09/27 02:59:17;;;;;;;0.40;0.40;;;18.30;72.10;;;;;;5047012;28;20227;-65
2022/09/27 03:02:18;;;;;;;0.50;0.50;;;18.30;72.00;;;;;;5034070;28;20183;-64
2022/09/27 03:05:18;;;;;;;0.77;0.57;;;18.30;72.00;;;;;;5033570;28;20282;-65
2022/09/27 03:07:45;;;;;;;0.52;0.40;;;18.30;72.00;;;;;;5033453;28;20183;-64
2022/09/27 03:10:25;;;;;;;0.50;0.50;;;18.30;72.80;;;;;;5033347;28;20225;-64
2022/09/27 03:12:52;;;;;;;0.50;0.50;;;18.30;72.00;;;;;;5049868;28;20241;-64
2022/09/27 03:15:18;;;;;;;0.70;0.60;;;18.30;72.00;;;;;;5049941;28;20222;-64
2022/09/27 03:18:10;;;;;;;0.43;0.43;;;18.30;72.80;;;;;;5025634;28;20211;-65
2022/09/27 03:21:14;;;;;;;0.50;0.50;;;18.30;72.80;;;;;;5034377;28;20571;-64
2022/09/27 03:23:40;;;;;;;0.70;0.60;;;18.30;72.00;;;;;;5049705;28;20213;-64
2022/09/27 03:26:06;;;;;;;0.40;0.40;;;18.30;72.00;;;;;;5033353;28;20183;-65
2022/09/27 03:28:31;;;;;;;0.30;0.30;;;18.30;72.00;;;;;;5049689;28;20203;-64
2022/09/27 03:30:57;;;;;;;0.63;0.63;;;18.30;72.00;;;;;;5049708;28;20218;-64
2022/09/27 03:33:49;;;;;;;0.65;0.50;;;18.30;72.10;;;;;;5036336;28;20238;-65
2022/09/27 03:36:16;;;;;;;0.63;0.60;;;18.30;72.10;;;;;;5049447;28;20203;-64
2022/09/27 03:38:42;;;;;;;0.55;0.55;;;18.30;72.10;;;;;;5049536;28;20211;-64
2022/09/27 03:41:11;;;;;;;0.50;0.50;;;18.30;72.10;;;;;;5049763;28;20198;-65
2022/09/27 03:43:38;;;;;;;1.42;0.57;;;18.30;72.10;;;;;;5049088;28;20186;-65
2022/09/27 03:46:04;;;;;;;0.43;0.43;;;18.30;72.10;;;;;;5032786;28;20183;-64
2022/09/27 03:48:30;;;;;;;0.40;0.40;;;18.30;72.00;;;;;;5016648;28;20285;-65
2022/09/27 03:50:56;;;;;;;0.50;0.50;;;18.30;72.00;;;;;;5049780;28;20271;-64
2022/09/27 03:53:22;;;;;;;0.50;0.50;;;18.30;72.00;;;;;;5049152;28;20248;-65
2022/09/27 03:55:47;;;;;;;0.47;0.47;;;18.30;72.00;;;;;;5049149;28;20269;-64
2022/09/27 03:58:14;;;;;;;0.82;0.40;;;18.30;72.00;;;;;;5048958;28;20215;-65
2022/09/27 04:00:40;;;;;;;0.60;0.60;;;18.30;72.00;;;;;;5049168;28;20187;-64
2022/09/27 04:03:06;;;;;;;0.43;0.40;;;18.30;72.00;;;;;;5048770;28;20187;-65
2022/09/27 04:05:38;;;;;;;0.45;0.45;;;18.30;72.00;;;;;;5048647;28;20176;-64
2022/09/27 04:08:13;;;;;;;0.40;0.40;;;18.30;72.80;;;;;;5031627;28;20203;-64
2022/09/27 04:10:42;;;;;;;1.48;0.43;;;18.30;72.00;;;;;;5049025;28;20176;-65
2022/09/27 04:13:08;;;;;;;0.50;0.50;;;18.30;71.90;;;;;;5015554;28;20179;-65
2022/09/27 04:15:39;;;;;;;0.75;0.52;;;18.30;72.00;;;;;;5048823;28;20289;-65
2022/09/27 04:18:34;;;;;;;0.63;0.40;;;18.30;72.00;;;;;;5032989;28;20627;-64
2022/09/27 04:21:36;;;;;;;0.35;0.35;;;18.30;72.00;;;;;;5030929;28;20274;-64
2022/09/27 04:24:04;;;;;;;1.15;0.50;;;18.30;72.00;;;;;;5028061;28;20191;-65
2022/09/27 04:26:30;;;;;;;0.47;0.40;;;18.30;72.00;;;;;;5048531;28;20262;-65
2022/09/27 04:29:09;;;;;;;0.60;0.50;;;18.30;71.90;;;;;;5031913;28;20203;-65
2022/09/27 04:31:37;;;;;;;0.50;0.45;;;18.30;72.00;;;;;;5047974;28;20289;-62
2022/09/27 04:36:25;;;;;;;0.57;0.57;;;18.30;72.00;;;;;;5032179;28;20238;-65
2022/09/27 04:37:10;;;;;;;1.02;0.65;;;18.30;71.90;;;;;;5031677;28;20191;-64
2022/09/27 04:39:40;;;;;;;0.55;0.55;;;18.30;71.90;;;;;;5048293;28;20203;-64
2022/09/27 04:42:06;;;;;;;1.95;0.40;;;18.30;71.90;;;;;;5048322;28;20183;-65
2022/09/27 04:44:32;;;;;;;0.60;0.50;;;18.30;71.90;;;;;;5048246;28;20195;-65
2022/09/27 04:46:58;;;;;;;0.50;0.50;;;18.30;71.90;;;;;;5048397;28;20197;-65
2022/09/27 04:49:24;;;;;;;0.55;0.40;;;18.20;72.50;;;;;;5048147;28;20213;-65
2022/09/27 04:51:49;;;;;;;0.55;0.40;;;18.20;71.80;;;;;;5047819;28;20187;-64
2022/09/27 04:54:15;;;;;;;0.63;0.50;;;18.20;71.70;;;;;;5032738;28;20175;-64
2022/09/27 04:56:50;;;;;;;1.30;0.40;;;18.20;71.80;;;;;;5047108;28;20270;-65
2022/09/27 04:59:15;;;;;;;0.68;0.40;;;18.30;71.90;;;;;;5047828;28;20294;-65
2022/09/27 05:01:41;;;;;;;0.70;0.70;;;18.20;71.80;;;;;;5047932;28;20189;-63
2022/09/27 05:04:15;;;;;;;0.50;0.50;;;18.20;71.80;;;;;;5032495;28;20249;-65
2022/09/27 05:06:46;;;;;;;0.57;0.40;;;18.20;71.80;;;;;;5047803;28;20175;-65
2022/09/27 05:09:18;;;;;;;0.50;0.50;;;18.20;71.80;;;;;;5047381;28;20210;-65
2022/09/27 05:11:49;;;;;;;1.35;0.60;;;18.20;71.80;;;;;;5031408;28;20258;-64
2022/09/27 05:14:15;;;;;;;1.42;0.70;;;18.20;71.80;;;;;;5048027;28;20671;-65
2022/09/27 05:16:55;;;;;;;0.60;0.60;;;18.20;71.80;;;;;;5047232;28;20697;-65
2022/09/27 05:19:40;;;;;;;0.60;0.60;;;18.20;71.70;;;;;;5031557;28;20233;-65
2022/09/27 05:22:26;;;;;;;0.70;0.50;;;18.20;71.70;;;;;;5047068;28;20178;-65
2022/09/27 05:24:52;;;;;;;1.30;0.60;;;18.20;71.70;;;;;;5047249;28;20218;-65
2022/09/27 05:27:19;;;;;;;0.55;0.50;;;18.20;71.70;;;;;;5029845;28;20589;-65
2022/09/27 05:29:49;;;;;;;0.88;0.75;;;18.20;71.70;;;;;;5032891;28;20200;-65
2022/09/27 05:32:23;;;;;;;0.77;0.70;;;18.20;71.70;;;;;;5010620;28;20184;-65
2022/09/27 05:34:57;;;;;;;0.50;0.50;;;18.20;71.70;;;;;;5026880;28;20211;-66
2022/09/27 05:37:23;;;;;;;0.95;0.60;;;18.30;71.80;;;;;;5010904;28;20195;-65
2022/09/27 05:39:49;;;;;;;0.70;0.60;;;18.20;71.70;;;;;;5010668;28;20196;-65
2022/09/27 05:42:17;;;;;;;0.98;0.70;;;18.20;71.70;;;;;;5026965;28;20241;-65
2022/09/27 05:44:47;;;;;;;0.75;0.50;;;18.20;71.70;;;;;;5010519;28;20195;-65
2022/09/27 05:47:14;;;;;;;2.00;0.60;;;18.20;71.50;;;;;;5010478;28;20192;-65
2022/09/27 05:49:41;;;;;;;0.52;0.52;;;18.20;71.60;;;;;;5010503;28;20235;-65
2022/09/27 05:52:10;;;;;;;0.50;0.45;;;18.20;71.60;;;;;;5010510;28;20278;-65
2022/09/27 05:54:35;;;;;;;0.50;0.50;;;18.20;71.50;;;;;;5010526;28;20208;-65
2022/09/27 05:57:02;;;;;;;1.20;0.52;;;18.20;71.60;;;;;;5010317;28;20203;-65
2022/09/27 05:59:40;;;;;;;0.73;0.60;;;18.20;71.60;;;;;;5026934;28;20211;-65
2022/09/27 06:02:21;;;;;;;1.40;0.77;;;18.20;71.60;;;;;;5025097;28;20192;-65
2022/09/27 06:05:23;;;;;;;1.05;0.60;;;18.20;71.60;;;;;;4970392;28;20233;-65
2022/09/27 06:08:11;;;;;;;1.17;0.70;;;18.20;71.60;;;;;;5006160;28;20206;-65
2022/09/27 06:10:42;;;;;;;0.50;0.50;;;18.20;71.60;;;;;;5026206;28;20179;-65
2022/09/27 06:13:14;;;;;;;1.83;0.80;;;18.20;71.60;;;;;;4993891;28;20192;-65
2022/09/27 06:15:44;;;;;;;0.65;0.60;;;18.20;71.60;;;;;;5029379;28;20601;-65
2022/09/27 06:18:16;;;;;;;1.02;0.70;;;18.20;72.30;;;;;;5028735;28;20212;-65
2022/09/27 06:20:44;;;;;;;2.08;0.80;;;18.20;71.50;;;;;;5030206;28;20183;-65
2022/09/27 06:23:12;;;;;;;1.30;0.70;;;18.20;71.50;;;;;;5029940;28;20186;-65
2022/09/27 06:25:40;;;;;;;0.50;0.50;;;18.20;71.50;;;;;;5046720;28;20233;-65
2022/09/27 06:28:21;;;;;;;0.88;0.55;;;18.20;71.60;;;;;;5044443;28;20203;-65
2022/09/27 06:30:50;;;;;;;1.40;0.60;;;18.20;72.30;;;;;;5048155;28;20294;-64
2022/09/27 06:33:24;;;;;;;2.20;0.60;;;18.20;71.50;;;;;;5050383;28;20244;-64
2022/09/27 06:35:52;;;;;;;0.40;0.40;;;18.20;71.50;;;;;;5033413;28;20221;-65
2022/09/27 06:38:23;;;;;;;1.13;0.88;;;18.20;71.50;;;;;;5050106;28;20207;-65
2022/09/27 06:41:14;;;;;;;1.13;0.68;;;18.20;71.50;;;;;;5043939;28;20250;-65
2022/09/27 06:43:58;;;;;;;1.30;0.80;;;18.20;72.30;;;;;;5033626;28;20194;-65
2022/09/27 06:46:33;;;;;;;1.48;0.50;;;18.20;71.50;;;;;;5034497;28;20190;-65
2022/09/27 06:49:10;;;;;;;0.50;0.50;;;18.20;71.50;;;;;;5034512;28;20286;-65
2022/09/27 06:51:38;;;;;;;0.70;0.57;;;18.20;71.60;;;;;;5033156;28;20211;-65
2022/09/27 06:54:04;;;;;;;0.47;0.40;;;18.20;71.50;;;;;;5049707;28;20211;-65
2022/09/27 06:56:30;;;;;;;2.53;0.60;;;18.20;71.50;;;;;;5033303;28;20249;-65
2022/09/27 07:01:40;;;;;;;1.70;0.70;;;18.20;72.20;;;;;;5034228;28;20191;-65
2022/09/27 07:04:29;;;;;;;1.98;0.60;;;18.20;71.40;;;;;;5046449;28;20274;-65
2022/09/27 07:07:05;;;;;;;1.02;0.70;;;18.20;71.50;;;;;;5049515;28;20190;-65
2022/09/27 07:09:35;;;;;;;1.00;0.65;;;18.20;71.40;;;;;;5032937;28;20203;-65
2022/09/27 07:12:01;;;;;;;1.02;0.60;;;18.10;71.40;;;;;;5032642;28;20188;-65
2022/09/27 07:14:27;;;;;;;1.48;0.68;;;18.20;71.40;;;;;;5049787;28;20226;-65
2022/09/27 07:16:54;;;;;;;0.80;0.70;;;18.20;71.40;;;;;;5049550;28;20187;-65
2022/09/27 07:19:20;;;;;;;2.00;0.70;;;18.20;71.40;;;;;;5032762;28;20599;-65
2022/09/27 07:21:51;;;;;;;1.35;0.60;;;18.20;72.20;;;;;;5029411;28;20179;-65
2022/09/27 07:24:17;;;;;;;0.68;0.35;;;18.20;71.40;;;;;;4996355;28;20216;-65
2022/09/27 07:26:43;;;;;;;0.93;0.65;;;18.20;71.40;;;;;;5012844;28;20188;-65
2022/09/27 07:29:11;;;;;;;0.57;0.55;;;18.20;71.40;;;;;;5012996;28;20196;-66
2022/09/27 07:31:37;;;;;;;0.40;0.40;;;18.20;71.40;;;;;;5012818;28;20192;-65
2022/09/27 07:34:04;;;;;;;1.05;0.50;;;18.20;71.30;;;;;;5012532;28;20180;-65
2022/09/27 07:36:30;;;;;;;0.82;0.57;;;18.20;71.30;;;;;;5012721;28;20192;-65
2022/09/27 07:38:59;;;;;;;1.40;0.70;;;18.20;72.10;;;;;;5012623;28;20203;-65
2022/09/27 07:41:25;;;;;;;0.60;0.50;;;18.20;71.30;;;;;;5012333;28;20238;-65
2022/09/27 07:43:53;;;;;;;3.90;0.70;;;18.20;71.30;;;;;;5012372;28;20184;-65
2022/09/27 07:46:20;;;;;;;0.52;0.50;;;18.20;71.40;;;;;;5012404;28;20241;-65
2022/09/27 07:49:05;;;;;;;0.90;0.70;;;18.20;71.30;;;;;;5012213;28;20633;-65
2022/09/27 07:51:50;;;;;;;0.60;0.50;;;18.20;71.40;;;;;;5014040;28;20233;-65
2022/09/27 07:54:46;;;;;;;0.70;0.60;;;18.20;71.40;;;;;;4977094;28;20234;-65
2022/09/27 07:57:28;;;;;;;0.75;0.40;;;18.20;71.40;;;;;;5012251;28;20234;-65
2022/09/27 07:59:57;;;;;;;0.40;0.40;;;18.20;71.40;;;;;;5076284;22;20225;-70
2022/09/27 08:02:23;;;;;;;0.65;0.50;;;18.20;71.40;;;;;;5054612;28;20189;-70
2022/09/27 08:04:50;;;;;;;1.15;0.50;;;18.20;71.40;;;;;;5071796;28;20242;-70
2022/09/27 08:07:16;;;;;;;0.60;0.60;;;18.20;71.30;;;;;;5088949;28;20181;-70
2022/09/27 08:09:45;;;;;;;0.50;0.50;;;18.20;72.10;;;;;;5055573;28;20680;-71
2022/09/27 08:12:12;;;;;;;0.52;0.50;;;18.20;71.40;;;;;;5055077;28;20206;-70
2022/09/27 08:14:38;;;;;;;1.20;0.40;;;18.20;71.30;;;;;;5071365;28;20205;-70
2022/09/27 08:17:04;;;;;;;0.52;0.52;;;18.20;71.30;;;;;;5054926;28;20269;-70
2022/09/27 08:19:56;;;;;;;0.85;0.50;;;18.20;71.30;;;;;;5071416;28;20201;-70
2022/09/27 08:22:51;;;;;;;0.75;0.60;;;18.20;72.00;;;;;;5050470;28;20686;-70
2022/09/27 08:25:27;;;;;;;1.05;0.50;;;18.20;71.00;;;;;;5035738;28;20186;-70
2022/09/27 08:28:11;;;;;;;0.60;0.40;;;18.20;71.80;;;;;;5051997;28;20197;-70
2022/09/27 08:30:44;;;;;;;0.88;0.60;;;18.20;71.20;;;;;;5035820;28;20197;-70
2022/09/27 08:33:10;;;;;;;0.60;0.60;;;18.20;71.00;;;;;;5051099;28;20186;-71
2022/09/27 08:35:36;;;;;;;0.60;0.52;;;18.20;71.00;;;;;;5051225;28;20281;-70
2022/09/27 08:38:04;;;;;;;0.73;0.52;;;18.20;71.00;;;;;;5034717;28;20323;-71
2022/09/27 08:41:33;;;;;;;0.75;0.50;;;18.20;71.00;;;;;;5034512;28;20232;-70
2022/09/27 08:44:33;;;;;;;0.70;0.50;;;18.30;71.10;;;;;;5025501;28;20189;-70
2022/09/27 08:47:24;;;;;;;0.60;0.40;;;18.30;71.10;;;;;;5035387;28;20220;-70
2022/09/27 08:50:31;;;;;;;1.02;0.68;;;18.30;71.00;;;;;;5034995;28;20230;-70
2022/09/27 08:53:43;;;;;;;1.17;0.60;;;18.30;71.10;;;;;;5033983;28;20183;-70
2022/09/27 08:56:11;;;;;;;0.50;0.50;;;18.20;71.00;;;;;;5034214;28;20218;-70
2022/09/27 08:59:00;;;;;;;0.65;0.47;;;18.20;71.00;;;;;;5050610;28;20210;-70
2022/09/27 09:01:31;;;;;;;1.25;0.60;;;18.20;71.00;;;;;;5035089;28;20198;-70
2022/09/27 09:04:41;;;;;;;1.05;0.50;;;18.20;71.00;;;;;;5050661;28;20191;-70
2022/09/27 09:07:42;;;;;;;0.85;0.40;;;18.20;71.00;;;;;;5034244;28;20186;-71
2022/09/27 09:14:48;;;;;;;0.60;0.60;;;18.20;71.00;;;;;;5037067;28;20193;-69
2022/09/27 09:17:43;;;;;;;0.80;0.50;;;18.20;71.00;;;;;;5034074;28;20225;-70
2022/09/27 09:21:01;;;;;;;0.40;0.40;;;18.20;71.00;;;;;;5035011;28;20206;-70
2022/09/27 09:23:39;;;;;;;0.47;0.47;;;18.30;71.00;;;;;;5049599;28;20198;-70
2022/09/27 09:26:39;;;;;;;0.60;0.57;;;18.30;71.00;;;;;;5050385;28;20221;-70
2022/09/27 09:30:04;;;;;;;0.40;0.40;;;18.30;71.00;;;;;;5052153;28;20234;-70
2022/09/27 09:33:25;;;;;;;0.50;0.50;;;18.30;71.00;;;;;;5050994;28;20678;-71
2022/09/27 09:35:58;;;;;;;1.83;0.60;;;18.30;71.00;;;;;;5039540;28;20230;-70
2022/09/27 09:38:49;;;;;;;1.05;0.50;;;18.30;71.00;;;;;;5050624;28;20183;-71
2022/09/27 09:41:38;;;;;;;0.52;0.40;;;18.30;71.00;;;;;;5034079;28;20194;-70
2022/09/27 09:44:17;;;;;;;0.68;0.50;;;18.20;71.00;;;;;;5050667;28;20205;-70
2022/09/27 09:46:54;;;;;;;0.45;0.45;;;18.20;71.00;;;;;;5069803;28;20203;-69
2022/09/27 09:49:40;;;;;;;0.40;0.40;;;18.20;71.00;;;;;;5045944;28;20561;-70
2022/09/27 09:52:15;;;;;;;0.75;0.50;;;18.20;71.00;;;;;;5049791;28;20178;-71
2022/09/27 09:54:49;;;;;;;0.93;0.60;;;18.20;71.00;;;;;;5070789;28;20216;-70
2022/09/27 09:57:29;;;;;;;0.50;0.50;;;18.20;71.00;;;;;;5070992;28;20170;-70
2022/09/27 10:00:17;;;;;;;0.60;0.55;;;18.30;71.00;;;;;;5070584;28;20232;-70
2022/09/27 10:02:48;;;;;;;0.60;0.60;;;18.30;71.00;;;;;;5070666;28;20287;-69
2022/09/27 10:05:25;;;;;;;0.85;0.50;;;18.20;71.00;;;;;;5073385;28;20174;-70
2022/09/27 10:08:06;;;;;;;0.57;0.47;;;18.20;71.00;;;;;;5074563;28;20251;-70
2022/09/27 10:10:32;;;;;;;0.50;0.50;;;18.20;71.00;;;;;;5074359;28;20201;-70
2022/09/27 10:13:35;;;;;;;1.58;0.80;;;18.30;71.00;;;;;;5073380;28;20183;-70
2022/09/27 10:16:09;;;;;;;0.47;0.47;;;18.20;71.00;;;;;;5071395;28;20234;-70
2022/09/27 10:18:40;;;;;;;1.23;0.43;;;18.20;71.00;;;;;;5058287;28;20210;-71
2022/09/27 10:21:16;;;;;;;0.55;0.50;;;18.20;71.70;;;;;;5063312;28;20178;-70
2022/09/27 10:24:13;;;;;;;1.63;0.50;;;18.20;71.00;;;;;;5074173;28;20181;-70
2022/09/27 10:27:11;;;;;;;0.70;0.60;;;18.30;71.00;;;;;;5063685;28;20186;-70
2022/09/27 10:29:39;;;;;;;0.65;0.60;;;18.30;71.00;;;;;;5049635;28;20201;-71
2022/09/27 10:32:42;;;;;;;1.50;0.70;;;18.30;71.00;;;;;;5068404;28;20186;-69
2022/09/27 10:35:28;;;;;;;0.60;0.60;;;18.30;71.00;;;;;;5046828;28;20752;-71
2022/09/27 10:38:27;;;;;;;0.60;0.60;;;18.30;71.00;;;;;;5037474;28;20182;-70
2022/09/27 10:41:40;;;;;;;0.50;0.50;;;18.30;71.10;;;;;;5039797;28;20178;-70
2022/09/27 10:44:26;;;;;;;0.80;0.63;;;18.30;71.00;;;;;;5067658;28;20192;-70
2022/09/27 10:47:21;;;;;;;0.88;0.80;;;18.30;71.00;;;;;;5073620;28;20188;-70
2022/09/27 10:50:06;;;;;;;0.93;0.70;;;18.30;71.00;;;;;;5072254;28;20205;-69
2022/09/27 10:53:19;;;;;;;1.42;0.70;;;18.30;71.00;;;;;;5074933;28;20189;-70
2022/09/27 10:55:51;;;;;;;1.67;0.88;;;18.30;71.00;;;;;;5067432;28;20300;-69
2022/09/27 10:58:33;;;;;;;1.63;1.02;;;18.30;71.00;;;;;;5049760;28;20210;-70
2022/09/27 11:01:10;;;;;;;1.30;1.10;;;18.40;71.20;;;;;;5034969;28;20183;-70
2022/09/27 11:04:03;;;;;;;1.02;0.90;;;18.40;71.20;;;;;;5050456;28;20183;-70
2022/09/27 11:06:36;;;;;;;1.38;0.85;;;18.30;71.00;;;;;;5034164;28;20190;-70
2022/09/27 11:09:25;;;;;;;1.08;0.60;;;18.30;71.00;;;;;;5033799;28;20210;-70
2022/09/27 11:12:09;;;;;;;0.85;0.80;;;18.40;71.20;;;;;;5050205;28;20178;-70
2022/09/27 11:14:36;;;;;;;1.23;0.52;;;18.40;71.20;;;;;;5033623;28;20232;-70
2022/09/27 11:17:13;;;;;;;0.60;0.60;;;18.40;71.20;;;;;;5049767;28;20258;-71
2022/09/27 11:20:07;;;;;;;1.00;0.82;;;18.40;71.20;;;;;;5050106;28;20205;-70
2022/09/27 11:23:13;;;;;;;1.65;0.77;;;18.40;71.20;;;;;;5034193;28;20183;-70
2022/09/27 11:26:16;;;;;;;1.35;1.00;;;18.40;71.20;;;;;;5034253;28;20798;-71
2022/09/27 11:28:57;;;;;;;1.10;0.93;;;18.40;71.10;;;;;;5052108;28;20213;-70
2022/09/27 11:32:24;;;;;;;0.70;0.68;;;18.40;71.10;;;;;;5046750;28;20195;-70
2022/09/27 11:35:31;;;;;;;0.80;0.80;;;18.40;71.20;;;;;;5034035;28;20218;-70
2022/09/27 11:38:31;;;;;;;1.13;0.70;;;18.40;71.20;;;;;;5052936;28;20178;-70
2022/09/27 11:41:22;;;;;;;1.20;0.68;;;18.40;71.20;;;;;;5052621;28;20182;-70
2022/09/27 11:44:20;;;;;;;0.90;0.90;;;18.40;71.10;;;;;;5035904;28;20182;-70
2022/09/27 11:47:41;;;;;;;1.20;0.80;;;18.40;71.20;;;;;;5036467;28;20709;-70
2022/09/27 11:50:52;;;;;;;1.08;0.80;;;18.30;70.70;;;;;;5052401;28;20294;-70
2022/09/27 11:53:32;;;;;;;0.75;0.75;;;18.40;70.80;;;;;;5052279;28;20193;-70
2022/09/27 11:56:29;;;;;;;0.73;0.60;;;18.40;70.80;;;;;;5060329;28;20213;-70
2022/09/27 11:59:24;;;;;;;1.00;0.68;;;18.40;70.70;;;;;;5052466;28;20210;-70
2022/09/27 12:02:21;;;;;;;1.17;0.90;;;18.40;70.70;;;;;;5052571;28;20217;-70
2022/09/27 12:04:56;;;;;;;0.68;0.60;;;18.40;70.60;;;;;;5035844;28;20237;-69
2022/09/27 12:07:47;;;;;;;0.93;0.60;;;18.40;70.70;;;;;;5051024;28;20186;-70
2022/09/27 12:10:17;;;;;;;0.50;0.50;;;18.40;70.50;;;;;;5055582;28;20202;-70
2022/09/27 12:12:50;;;;;;;1.30;0.70;;;18.40;70.60;;;;;;5055316;28;20185;-69
2022/09/27 12:15:25;;;;;;;0.60;0.60;;;18.30;70.50;;;;;;5072511;28;20213;-70
2022/09/27 12:18:04;;;;;;;1.05;0.60;;;18.30;70.50;;;;;;5072240;28;20165;-70
2022/09/27 12:20:36;;;;;;;0.95;0.60;;;18.40;70.50;;;;;;5055669;28;20201;-70
2022/09/27 12:23:44;;;;;;;0.70;0.70;;;18.40;70.50;;;;;;5055617;28;20334;-70
2022/09/27 12:26:37;;;;;;;1.20;0.50;;;18.40;70.60;;;;;;5070862;28;20186;-70
2022/09/27 12:29:20;;;;;;;0.80;0.80;;;18.40;70.50;;;;;;5070890;28;20209;-70
2022/09/27 12:32:09;;;;;;;1.02;0.77;;;18.40;70.50;;;;;;5055644;28;20185;-70
2022/09/27 12:35:06;;;;;;;0.93;0.60;;;18.40;70.40;;;;;;5071463;28;20251;-70
2022/09/27 12:38:11;;;;;;;0.88;0.60;;;18.40;70.50;;;;;;5054978;28;20170;-69
2022/09/27 12:41:08;;;;;;;1.38;0.77;;;18.40;70.50;;;;;;5071793;28;20173;-70
2022/09/27 12:43:49;;;;;;;0.68;0.68;;;18.40;70.40;;;;;;5056412;28;20170;-70
2022/09/27 12:47:17;;;;;;;0.88;0.60;;;18.40;70.60;;;;;;5055450;28;20180;-70
2022/09/27 12:49:57;;;;;;;1.10;0.70;;;18.40;70.50;;;;;;5021383;28;20275;-70
2022/09/27 12:52:30;;;;;;;0.82;0.80;;;18.40;70.60;;;;;;5071438;28;20178;-70
2022/09/27 12:55:03;;;;;;;0.82;0.70;;;18.40;70.50;;;;;;5071229;28;20283;-70
2022/09/27 12:58:13;;;;;;;0.95;0.73;;;18.40;70.60;;;;;;5071611;28;20197;-70
2022/09/27 13:00:54;;;;;;;0.95;0.93;;;18.30;70.50;;;;;;5054948;28;20247;-70
2022/09/27 13:03:50;;;;;;;0.68;0.68;;;18.30;70.60;;;;;;5071424;28;20181;-69
2022/09/27 13:06:19;;;;;;;0.80;0.80;;;18.40;70.70;;;;;;5071202;28;20213;-70
2022/09/27 13:09:00;;;;;;;0.40;0.40;;;18.40;70.70;;;;;;5071156;28;20209;-70
2022/09/27 13:12:09;;;;;;;0.93;0.50;;;18.30;70.40;;;;;;5055453;28;20223;-70
2022/09/27 13:15:13;;;;;;;0.85;0.60;;;18.40;70.60;;;;;;5054793;28;20189;-70
2022/09/27 13:17:39;;;;;;;0.40;0.40;;;18.30;70.70;;;;;;5068979;28;20196;-70
2022/09/27 13:20:35;;;;;;;0.80;0.60;;;18.30;70.70;;;;;;5054521;28;20206;-70
2022/09/27 13:23:19;;;;;;;1.10;0.77;;;18.30;70.60;;;;;;5053609;28;20197;-70
2022/09/27 13:26:02;;;;;;;1.10;0.60;;;18.30;70.60;;;;;;5055332;28;20174;-70
2022/09/27 13:28:47;;;;;;;0.70;0.70;;;18.30;70.60;;;;;;5070852;28;20197;-70
2022/09/27 13:31:53;;;;;;;1.33;0.77;;;18.30;70.90;;;;;;5054873;28;20193;-70
2022/09/27 13:34:45;;;;;;;0.73;0.60;;;18.30;70.70;;;;;;5054469;28;20245;-70
2022/09/27 13:37:43;;;;;;;1.02;0.52;;;18.30;70.80;;;;;;5070383;28;20223;-70
2022/09/27 13:40:15;;;;;;;1.00;0.50;;;18.30;70.70;;;;;;5058571;28;20777;-70
2022/09/27 13:43:10;;;;;;;1.90;0.80;;;18.40;70.80;;;;;;5062917;28;20189;-70
2022/09/27 13:46:04;;;;;;;1.10;0.77;;;18.30;70.80;;;;;;5077609;28;20185;-70
2022/09/27 13:48:35;;;;;;;3.08;0.73;;;18.40;70.70;;;;;;5077782;28;20288;-70
2022/09/27 13:51:15;;;;;;;0.60;0.60;;;18.40;70.80;;;;;;5077899;28;20181;-69
2022/09/27 13:53:45;;;;;;;1.80;0.70;;;18.30;70.70;;;;;;5060752;28;20314;-70
2022/09/27 13:56:45;;;;;;;1.13;0.70;;;18.40;70.90;;;;;;5060685;28;20587;-70
2022/09/27 13:59:42;;;;;;;1.02;0.50;;;18.40;70.70;;;;;;5098962;22;20312;-65
2022/09/27 14:02:41;;;;;;;1.95;0.65;;;18.40;70.70;;;;;;5038975;28;20192;-64
2022/09/27 14:05:19;;;;;;;0.98;0.70;;;18.30;70.60;;;;;;5024492;28;20189;-65